Quick Links (Output Below):   Max & Min Temps   /   Climate Reports   /   Zone Forecasts
River Forecasts   /   Forestry Forecasts   /   Aviation Forecasts   /   Radars   /   Features

Terminal Aerodrome Forecast (Pine Bluff)

Pick a Site:
Arkadelphia | El Dorado | Fayetteville | Fort Smith | Harrison | Highfill | Hot Springs | Jonesboro
Little Rock | Monticello | Mountain Home | Pine Bluff | Texarkana
 Forecast 

KPBF 312339Z 0100/0124 14008KT P6SM SCT040 BKN070
      TEMPO 0100/0103 5SM TSRA BR BKN025CB
     FM010300 22004KT P6SM OVC035
     FM010900 24003KT 5SM BR OVC025
     FM011500 16007KT P6SM OVC040=


 Latest METARs (Observations) 
How to Decode METARs
04Z KPBF 010353Z AUTO 00000KT 10SM CLR 17/16 A2996 RMK AO2 SLP143
         T01720156
         
03Z KPBF 010253Z AUTO 24005KT 10SM CLR 20/17 A2997 RMK AO2 SLP146
         T02000167 51023
         
02Z KPBF 010153Z AUTO 24007KT 10SM CLR 21/17 A2995 RMK AO2 SLP141
         T02110167
         
01Z KPBF 010053Z AUTO 25008G16KT 10SM FEW043 23/17 A2993 RMK AO2
         SLP133 T02280172
         
***** Today's Observations (Above) *****


23Z KPBF 312253Z AUTO 12007KT 10SM SCT048 SCT060 BKN080 24/17 A2989
         RMK AO2 SLP121 T02390172
         
22Z KPBF 312153Z AUTO 12009KT 10SM FEW048 BKN070 24/18 A2989 RMK AO2
         SLP120 T02440178
         
21Z KPBF 312053Z AUTO 09008KT 10SM BKN045 BKN065 OVC090 22/18 A2991
         RMK AO2 LTG DSNT SE SLP127 T02170178 56021
         
20Z KPBF 311953Z AUTO 04004KT 10SM BKN042 BKN050 OVC060 23/18 A2992
         RMK AO2 LTG DSNT NE-SE SLP131 T02330183
         
19Z KPBF 311853Z AUTO 23015G21KT 10SM VCTS SCT040 BKN047 OVC060 26/17
         A2993 RMK AO2 LTG DSNT NW-E SLP133 T02610172
         
18Z KPBF 311753Z AUTO 23011G17KT 10SM FEW034 BKN043 BKN060 26/17 A2997
         RMK AO2 LTG DSNT NW SLP148 T02560172 10267 20156 58018
         
***** Yesterday's Observations (Above) *****


Back to Main Page
http://www.srh.noaa.gov/lzk/qfcst.php

USA.gov is the U.S. government's official web portal to all federal, state and local government web resources and services.